Time;durP1;ratioP1;P1;durP2;ratioP2;P2;SDS_P1;SDS_P2;PMS_P1;PMS_P2;Temp;Humidity;BMP_temperature;BMP_pressure;BME280_temperature;BME280_humidity;BME280_pressure;Samples;Min_cycle;Max_cycle;Signal;HPM_P1;HPM_P2
2022/02/16 00:02:13;;;;;;;4.00;1.90;;;2.10;99.90;;;;;;6219189;23;20170;-82
2022/02/16 00:04:39;;;;;;;1.93;1.53;;;2.20;99.90;;;;;;6218196;23;20232;-82
2022/02/16 00:07:05;;;;;;;4.03;1.90;;;2.40;99.90;;;;;;6220149;23;20161;-83
2022/02/16 00:09:31;;;;;;;1.73;1.57;;;2.30;99.90;;;;;;6220219;23;20204;-82
2022/02/16 00:11:57;;;;;;;2.23;1.63;;;2.30;99.90;;;;;;6220057;23;20193;-82
2022/02/16 00:14:23;;;;;;;3.33;1.47;;;;;;;;;;6243447;23;20522;-82
2022/02/16 00:16:49;;;;;;;3.07;2.00;;;2.50;99.90;;;;;;6220394;23;20150;-82
2022/02/16 00:19:15;;;;;;;4.53;1.90;;;2.60;99.90;;;;;;6220638;23;20150;-82
2022/02/16 00:21:41;;;;;;;2.17;1.93;;;2.70;99.90;;;;;;6246453;23;20160;-82
2022/02/16 00:24:06;;;;;;;1.93;1.50;;;2.80;99.90;;;;;;6222344;23;20161;-82
2022/02/16 00:26:32;;;;;;;5.00;2.10;;;2.70;99.90;;;;;;6221846;23;20151;-82
2022/02/16 00:28:58;;;;;;;4.27;1.70;;;2.60;99.90;;;;;;6220965;23;20228;-82
2022/02/16 00:31:24;;;;;;;1.80;1.40;;;2.60;99.90;;;;;;6245495;23;20232;-82
2022/02/16 00:33:49;;;;;;;2.87;1.33;;;2.80;99.90;;;;;;6245781;23;20193;-82
2022/02/16 00:36:15;;;;;;;2.57;1.40;;;2.80;99.90;;;;;;6220600;23;20158;-82
2022/02/16 00:38:40;;;;;;;2.63;1.47;;;2.80;99.90;;;;;;6222881;23;20146;-82
2022/02/16 00:41:06;;;;;;;3.03;1.13;;;2.80;99.90;;;;;;6222122;23;20160;-82
2022/02/16 00:43:32;;;;;;;2.03;1.30;;;3.40;99.90;;;;;;6222358;23;20174;-82
2022/02/16 00:45:57;;;;;;;4.03;1.37;;;2.80;99.90;;;;;;6223092;23;20153;-82
2022/02/16 00:48:23;;;;;;;4.33;1.77;;;2.80;99.90;;;;;;6223144;23;20150;-83
2022/02/16 00:50:49;;;;;;;2.97;1.30;;;2.90;99.90;;;;;;6231296;23;20150;-83
2022/02/16 00:53:14;;;;;;;2.13;1.47;;;2.90;99.90;;;;;;6234752;23;20178;-81
2022/02/16 00:55:40;;;;;;;2.83;1.30;;;2.80;99.90;;;;;;6223649;23;20225;-81
2022/02/16 00:58:06;;;;;;;7.27;1.63;;;2.80;99.90;;;;;;6221545;23;20174;-82
2022/02/16 01:00:35;;;;;;;2.10;1.07;;;;;;;;;;6244948;23;20277;-82
2022/02/16 01:03:02;;;;;;;2.80;1.13;;;;;;;;;;6221536;23;20173;-82
2022/02/16 01:05:28;;;;;;;4.53;1.37;;;;;;;;;;6221610;23;20155;-82
2022/02/16 01:07:54;;;;;;;2.70;1.40;;;;;;;;;;6221512;23;20226;-82
2022/02/16 01:10:20;;;;;;;1.80;1.20;;;;;;;;;;6221213;23;20224;-81
2022/02/16 01:12:47;;;;;;;1.67;1.00;;;;;;;;;;6221725;23;20183;-82
2022/02/16 01:15:13;;;;;;;2.63;1.10;;;;;;;;;;6221095;23;20269;-82
2022/02/16 01:17:39;;;;;;;1.60;1.10;;;;;;;;;;6221936;23;20152;-82
2022/02/16 01:20:06;;;;;;;2.80;1.00;;;;;;;;;;6221679;23;20147;-82
2022/02/16 01:22:32;;;;;;;2.73;1.00;;;;;;;;;;6220438;23;20263;-82
2022/02/16 01:24:59;;;;;;;2.37;1.30;;;;;;;;;;6221320;23;20187;-82
2022/02/16 01:27:25;;;;;;;3.80;1.37;;;;;;;;;;6221023;23;20148;-82
2022/02/16 01:29:51;;;;;;;3.97;1.70;;;;;;;;;;6219247;23;20606;-82
2022/02/16 01:32:17;;;;;;;3.27;1.80;;;;;;;;;;6220078;23;20200;-82
2022/02/16 01:34:43;;;;;;;3.37;1.50;;;;;;;;;;6223120;23;20156;-82
2022/02/16 01:37:09;;;;;;;1.97;1.13;;;;;;;;;;6220278;23;20143;-81
2022/02/16 01:39:36;;;;;;;2.80;1.10;;;;;;;;;;6220995;23;20231;-82
2022/02/16 01:42:05;;;;;;;4.03;1.23;;;;;;;;;;6220867;23;20172;-81
2022/02/16 01:44:31;;;;;;;1.20;0.90;;;;;;;;;;6220373;23;20146;-81
2022/02/16 01:47:01;;;;;;;0.77;0.77;;;;;;;;;;6221249;23;20202;-81
2022/02/16 01:49:27;;;;;;;1.20;0.80;;;;;;;;;;6220775;23;20156;-82
2022/02/16 01:51:54;;;;;;;2.93;1.20;;;;;;;;;;6219505;23;20235;-82
2022/02/16 01:54:20;;;;;;;1.33;0.87;;;;;;;;;;6221150;23;20193;-81
2022/02/16 01:56:48;;;;;;;1.97;1.00;;;;;;;;;;6220597;23;20256;-82
2022/02/16 01:59:18;;;;;;;2.03;0.97;;;;;;;;;;6221479;23;20483;-82
2022/02/16 02:01:44;;;;;;;2.00;1.07;;;;;;;;;;6220918;23;20170;-82
2022/02/16 02:04:10;;;;;;;3.60;1.23;;;;;;;;;;6220942;23;20159;-82
2022/02/16 02:06:36;;;;;;;1.60;1.10;;;;;;;;;;6221362;23;20154;-82
2022/02/16 02:09:02;;;;;;;2.63;1.03;;;;;;;;;;6221055;23;20147;-82
2022/02/16 02:11:28;;;;;;;1.20;0.93;;;;;;;;;;6220691;23;20159;-81
2022/02/16 02:13:54;;;;;;;1.13;0.90;;;;;;;;;;6219256;23;20650;-82
2022/02/16 02:16:20;;;;;;;2.07;1.00;;;;;;;;;;6221298;23;20154;-82
2022/02/16 02:18:46;;;;;;;2.67;1.30;;;;;;;;;;6221120;23;20148;-82
2022/02/16 02:21:12;;;;;;;1.90;1.10;;;;;;;;;;6220945;23;20155;-82
2022/02/16 02:23:38;;;;;;;1.53;1.00;;;;;;;;;;6220572;23;20171;-82
2022/02/16 02:26:04;;;;;;;2.50;1.10;;;;;;;;;;6221112;23;20150;-82
2022/02/16 02:28:30;;;;;;;1.77;1.03;;;;;;;;;;6221111;23;20229;-82
2022/02/16 02:30:56;;;;;;;2.03;0.83;;;;;;;;;;6219399;23;20160;-81
2022/02/16 02:33:22;;;;;;;2.67;1.10;;;;;;;;;;6215862;23;20671;-82
2022/02/16 02:35:53;;;;;;;1.30;0.90;;;;;;;;;;6217906;23;20491;-83
2022/02/16 02:38:19;;;;;;;1.13;1.00;;;;;;;;;;6218407;23;20793;-83
2022/02/16 02:40:45;;;;;;;2.53;1.23;;;;;;;;;;6217579;23;20246;-81
2022/02/16 02:43:11;;;;;;;1.23;0.87;;;;;;;;;;6216447;23;20184;-82
2022/02/16 02:45:37;;;;;;;1.90;1.10;;;;;;;;;;6218190;23;20159;-82
2022/02/16 02:48:03;;;;;;;1.17;0.80;;;;;;;;;;6218410;23;20149;-81
2022/02/16 02:50:30;;;;;;;2.13;0.87;;;;;;;;;;6218062;23;20487;-82
2022/02/16 02:52:55;;;;;;;2.60;0.90;;;;;;;;;;6218710;23;20191;-82
2022/02/16 02:55:22;;;;;;;2.00;1.17;;;;;;;;;;6217988;23;20153;-82
2022/02/16 02:57:48;;;;;;;2.27;1.17;;;;;;;;;;6218533;23;20143;-82
2022/02/16 03:00:15;;;;;;;3.30;1.00;;;;;;;;;;6216734;23;20148;-83
2022/02/16 03:02:42;;;;;;;2.87;1.03;;;;;;;;;;6218291;23;20512;-82
2022/02/16 03:05:10;;;;;;;1.30;0.87;;;;;;;;;;6218220;23;20487;-82
2022/02/16 03:07:36;;;;;;;1.40;1.00;;;;;;;;;;6216475;23;20161;-82
2022/02/16 03:10:02;;;;;;;2.50;1.27;;;;;;;;;;6218530;23;20160;-81
2022/02/16 03:12:28;;;;;;;1.47;1.27;;;;;;;;;;6218116;23;20168;-82
2022/02/16 03:14:54;;;;;;;1.20;1.00;;;;;;;;;;6217744;23;20171;-84
2022/02/16 03:17:21;;;;;;;1.90;1.10;;;;;;;;;;6218332;23;20152;-82
2022/02/16 03:19:47;;;;;;;1.30;0.90;;;;;;;;;;6217505;23;20152;-84
2022/02/16 03:22:13;;;;;;;1.53;1.00;;;;;;;;;;6219250;23;20170;-82
2022/02/16 03:24:39;;;;;;;0.93;0.83;;;;;;;;;;6218427;23;20156;-82
2022/02/16 03:27:05;;;;;;;1.77;1.00;;;;;;;;;;6218899;23;20152;-82
2022/02/16 03:29:31;;;;;;;1.00;0.90;;;;;;;;;;6218992;23;20157;-84
2022/02/16 03:31:57;;;;;;;2.23;1.17;;;;;;;;;;6217247;23;20284;-82
2022/02/16 03:34:23;;;;;;;1.80;0.90;;;;;;;;;;6216990;23;20169;-82
2022/02/16 03:36:49;;;;;;;1.07;0.87;;;;;;;;;;6218882;23;20149;-83
2022/02/16 03:39:15;;;;;;;0.90;0.80;;;;;;;;;;6219055;23;20199;-82
2022/02/16 03:41:41;;;;;;;1.57;0.97;;;;;;;;;;6219305;23;20593;-82
2022/02/16 03:44:07;;;;;;;2.73;0.80;;;;;;;;;;6216458;23;20175;-82
2022/02/16 03:46:33;;;;;;;1.63;0.70;;;;;;;;;;6218624;23;20160;-82
2022/02/16 03:48:59;;;;;;;1.80;0.73;;;;;;;;;;6216344;23;20183;-82
2022/02/16 03:51:25;;;;;;;1.77;1.03;;;;;;;;;;6219148;23;20152;-82
2022/02/16 03:53:51;;;;;;;2.77;0.73;;;;;;;;;;6217779;23;20195;-82
2022/02/16 03:56:17;;;;;;;3.03;1.00;;;;;;;;;;6220008;23;20667;-82
2022/02/16 03:58:43;;;;;;;1.67;0.63;;;;;;;;;;6218950;23;20154;-82
2022/02/16 04:01:09;;;;;;;1.30;0.80;;;;;;;;;;6219228;23;20174;-82
2022/02/16 04:03:35;;;;;;;2.20;0.67;;;;;;;;;;6220520;23;20226;-82
2022/02/16 04:06:01;;;;;;;1.00;0.60;;;;;;;;;;6219448;23;20201;-82
2022/02/16 04:08:27;;;;;;;1.60;0.73;;;;;;;;;;6218512;23;20538;-82
2022/02/16 04:10:53;;;;;;;1.00;0.67;;;;;;;;;;6219655;23;20178;-82
2022/02/16 04:13:19;;;;;;;1.47;0.80;;;;;;;;;;6219000;23;20189;-81
2022/02/16 04:15:45;;;;;;;1.63;0.70;;;;;;;;;;6219958;23;20157;-82
2022/02/16 04:18:11;;;;;;;2.70;0.70;;;;;;;;;;6218436;23;20149;-82
2022/02/16 04:20:37;;;;;;;1.73;0.80;;;;;;;;;;6220438;23;20156;-82
2022/02/16 04:23:04;;;;;;;1.57;0.77;;;;;;;;;;6220026;23;20168;-82
2022/02/16 04:25:30;;;;;;;1.33;0.80;;;;;;;;;;6219496;23;20165;-81
2022/02/16 04:27:56;;;;;;;0.53;0.53;;;;;;;;;;6218668;23;20613;-82
2022/02/16 04:30:22;;;;;;;1.70;0.80;;;;;;;;;;6218307;23;20160;-82
2022/02/16 04:32:48;;;;;;;1.60;0.70;;;;;;;;;;6217937;23;20200;-81
2022/02/16 04:35:14;;;;;;;1.13;0.70;;;;;;;;;;6220064;23;20453;-82
2022/02/16 04:37:40;;;;;;;1.23;0.70;;;;;;;;;;6220046;23;20163;-80
2022/02/16 04:40:07;;;;;;;1.17;0.70;;;;;;;;;;6220560;23;20150;-81
2022/02/16 04:42:33;;;;;;;1.20;0.63;;;;;;;;;;6218128;23;20172;-81
2022/02/16 04:44:59;;;;;;;2.50;0.73;;;;;;;;;;6219857;23;20212;-81
2022/02/16 04:47:25;;;;;;;1.90;0.73;;;;;;;;;;6220010;23;20595;-82
2022/02/16 04:49:51;;;;;;;2.67;0.80;;;;;;;;;;6220044;23;20147;-81
2022/02/16 04:52:17;;;;;;;2.23;1.00;;;;;;;;;;6219578;23;20235;-81
2022/02/16 04:54:43;;;;;;;4.60;1.00;;;;;;;;;;6219771;23;20166;-81
2022/02/16 04:57:12;;;;;;;0.87;0.83;;;;;;;;;;6220794;23;20157;-82
2022/02/16 04:59:38;;;;;;;1.13;0.70;;;;;;;;;;6219736;23;20152;-82
2022/02/16 05:02:04;;;;;;;0.97;0.70;;;;;;;;;;6219297;23;20184;-82
2022/02/16 05:04:31;;;;;;;4.13;1.10;;;;;;;;;;6220897;23;20152;-81
2022/02/16 05:06:58;;;;;;;1.30;0.87;;;;;;;;;;6222024;23;20228;-82
2022/02/16 05:09:24;;;;;;;2.17;0.90;;;;;;;;;;6221593;23;20180;-82
2022/02/16 05:11:50;;;;;;;1.80;1.00;;;;;;;;;;6225648;23;20208;-81
2022/02/16 05:14:16;;;;;;;1.03;0.60;;;;;;;;;;6222093;23;20177;-81
2022/02/16 05:16:42;;;;;;;1.23;1.10;;;;;;;;;;6221095;23;20669;-81
2022/02/16 05:19:08;;;;;;;1.40;0.90;;;;;;;;;;6222166;23;20467;-82
2022/02/16 05:21:34;;;;;;;0.87;0.60;;;;;;;;;;6222323;23;20152;-81
2022/02/16 05:24:00;;;;;;;1.40;0.90;;;;;;;;;;6220174;23;20189;-82
2022/02/16 05:26:26;;;;;;;1.57;0.70;;;;;;;;;;6221513;23;20158;-82
2022/02/16 05:28:52;;;;;;;1.30;1.00;;;;;;;;;;6219714;23;20161;-83
2022/02/16 05:31:18;;;;;;;1.63;1.03;;;;;;;;;;6219416;23;20179;-83
2022/02/16 05:34:12;;;;;;;1.47;1.00;;;;;;;;;;6219604;23;20636;-81
2022/02/16 05:36:38;;;;;;;0.67;0.67;;;;;;;;;;6216558;23;20503;-82
2022/02/16 05:39:05;;;;;;;1.17;0.90;;;;;;;;;;6218613;23;20164;-84
2022/02/16 05:41:32;;;;;;;1.40;0.80;;;;;;;;;;6219511;23;20594;-84
2022/02/16 05:43:58;;;;;;;2.37;0.70;;;;;;;;;;6217428;23;20191;-82
2022/02/16 05:46:24;;;;;;;1.27;0.87;;;;;;;;;;6219967;23;20156;-82
2022/02/16 05:48:50;;;;;;;1.07;0.70;;;;;;;;;;6217953;23;20172;-82
2022/02/16 05:51:16;;;;;;;0.90;0.80;;;;;;;;;;6217359;23;20157;-83
2022/02/16 05:53:43;;;;;;;0.70;0.63;;;;;;;;;;6220073;23;20255;-82
2022/02/16 05:56:09;;;;;;;1.10;0.90;;;;;;;;;;6220608;23;20150;-82
2022/02/16 05:58:35;;;;;;;1.00;0.70;;;;;;;;;;6217945;23;20152;-83
2022/02/16 06:01:02;;;;;;;1.63;0.80;;;;;;;;;;6220598;23;20148;-81
2022/02/16 06:03:28;;;;;;;1.13;0.77;;;;;;;;;;6220958;23;20198;-81
2022/02/16 06:05:54;;;;;;;1.50;0.63;;;;;;;;;;6221370;23;20161;-82
2022/02/16 06:08:20;;;;;;;1.43;0.93;;;;;;;;;;6221062;23;20149;-81
2022/02/16 06:10:46;;;;;;;1.70;1.00;;;;;;;;;;6220829;23;20185;-81
2022/02/16 06:13:14;;;;;;;1.20;0.80;;;;;;;;;;6218313;23;20269;-81
2022/02/16 06:15:40;;;;;;;1.10;0.93;;;;;;;;;;6219822;23;20149;-81
2022/02/16 06:18:09;;;;;;;1.90;0.90;;;;;;;;;;6219376;23;20161;-82
2022/02/16 06:20:35;;;;;;;2.07;0.90;;;;;;;;;;6219071;23;20153;-81
2022/02/16 06:23:01;;;;;;;2.40;0.73;;;;;;;;;;6218018;23;20287;-82
2022/02/16 06:25:28;;;;;;;2.37;0.90;;;;;;;;;;6215204;23;20160;-81
2022/02/16 06:27:54;;;;;;;0.97;0.70;;;;;;;;;;6217362;23;20153;-82
2022/02/16 06:30:20;;;;;;;1.87;1.00;;;;;;;;;;6219210;23;20172;-81
2022/02/16 06:32:46;;;;;;;1.00;0.90;;;;;;;;;;6217701;23;20187;-82
2022/02/16 06:35:13;;;;;;;1.20;0.93;;;;;;;;;;6218957;23;20148;-83
2022/02/16 06:37:39;;;;;;;2.13;1.17;;;;;;;;;;6219636;23;20156;-81
2022/02/16 06:40:05;;;;;;;0.83;0.73;;;;;;;;;;6218123;23;20493;-82
2022/02/16 06:42:31;;;;;;;1.00;0.90;;;;;;;;;;6219556;23;20169;-81
2022/02/16 06:44:57;;;;;;;1.03;0.70;;;;;;;;;;6219067;23;20154;-82
2022/02/16 06:47:23;;;;;;;1.63;1.07;;;;;;;;;;6219531;23;20479;-82
2022/02/16 06:49:49;;;;;;;1.90;1.00;;;;;;;;;;6217044;23;20149;-82
2022/02/16 06:52:15;;;;;;;1.67;0.90;;;;;;;;;;6218053;23;20268;-82
2022/02/16 06:54:42;;;;;;;0.93;0.70;;;;;;;;;;6218843;23;20180;-82
2022/02/16 06:57:08;;;;;;;1.60;0.90;;;;;;;;;;6217320;23;20155;-82
2022/02/16 06:59:34;;;;;;;1.53;0.80;;;;;;;;;;6219865;23;20156;-83
2022/02/16 07:02:00;;;;;;;1.10;0.90;;;;;;;;;;6217721;23;20225;-82
2022/02/16 07:04:27;;;;;;;1.03;0.87;;;;;;;;;;6217472;23;20165;-82
2022/02/16 07:06:53;;;;;;;1.80;1.00;;;;;;;;;;6217282;23;20244;-82
2022/02/16 07:09:19;;;;;;;1.23;0.87;;;;;;;;;;6218652;23;20160;-82
2022/02/16 07:11:45;;;;;;;1.53;1.10;;;;;;;;;;6220048;23;20156;-83
2022/02/16 07:14:11;;;;;;;2.03;0.90;;;;;;;;;;6219125;23;20174;-82
2022/02/16 07:16:37;;;;;;;2.47;0.90;;;;;;;;;;6218972;23;20157;-82
2022/02/16 07:19:03;;;;;;;1.33;1.10;;;;;;;;;;6219092;23;20216;-82
2022/02/16 07:21:29;;;;;;;1.97;1.03;;;;;;;;;;6218893;23;20219;-84
2022/02/16 07:23:55;;;;;;;1.30;1.20;;;;;;;;;;6218296;23;20161;-82
2022/02/16 07:26:22;;;;;;;1.10;1.00;;;;;;;;;;6218831;23;20149;-82
2022/02/16 07:28:51;;;;;;;1.33;1.10;;;;;;;;;;6215938;23;20167;-82
2022/02/16 07:31:17;;;;;;;1.77;1.10;;;;;;;;;;6218372;23;20159;-83
2022/02/16 07:33:43;;;;;;;1.07;0.97;;;;;;;;;;6229466;22;20683;-81
2022/02/16 07:36:09;;;;;;;1.27;0.70;;;;;;;;;;6278096;22;20143;-82
2022/02/16 07:38:35;;;;;;;1.77;1.03;;;;;;;;;;6278036;22;20230;-81
2022/02/16 07:41:02;;;;;;;1.20;1.10;;;;;;;;;;6277742;22;20172;-81
2022/02/16 07:43:28;;;;;;;1.70;1.00;;;;;;;;;;6276803;22;20151;-81
2022/02/16 07:45:55;;;;;;;1.10;0.90;;;;;;;;;;6275812;22;20686;-81
2022/02/16 07:48:21;;;;;;;1.47;1.10;;;;;;;;;;6276737;22;20179;-81
2022/02/16 07:50:50;;;;;;;1.33;1.10;;;;;;;;;;6277894;22;20198;-81
2022/02/16 07:53:16;;;;;;;1.30;0.97;;;;;;;;;;6278232;22;20249;-81
2022/02/16 07:55:43;;;;;;;1.30;1.00;;;;;;;;;;6277696;22;20173;-81
2022/02/16 07:58:09;;;;;;;1.20;1.00;;;;;;;;;;6276882;22;20490;-81
2022/02/16 08:00:37;;;;;;;1.57;1.10;;;;;;;;;;6277431;22;20259;-81
2022/02/16 08:03:03;;;;;;;0.97;0.93;;;;;;;;;;6277313;22;20150;-81
2022/02/16 08:05:29;;;;;;;2.53;1.03;;;;;;;;;;6275553;22;20178;-81
2022/02/16 08:07:55;;;;;;;1.30;1.00;;;;;;;;;;6277035;22;20181;-81
2022/02/16 08:10:23;;;;;;;1.67;1.30;;;;;;;;;;6277022;22;20205;-81
2022/02/16 08:12:56;;;;;;;1.70;1.00;;;;;;;;;;6276913;22;20175;-81
2022/02/16 08:15:22;;;;;;;2.43;1.20;;;;;;;;;;6275254;22;20173;-81
2022/02/16 08:17:48;;;;;;;1.87;1.37;;;;;;;;;;6277142;22;20149;-81
2022/02/16 08:20:14;;;;;;;1.30;1.20;;;;;;;;;;6276940;22;20151;-81
2022/02/16 08:22:40;;;;;;;1.40;1.10;;;;;;;;;;6276533;22;20155;-81
2022/02/16 08:25:07;;;;;;;2.67;1.90;;;;;;;;;;6277075;22;20165;-81
2022/02/16 08:27:34;;;;;;;3.20;1.60;;;;;;;;;;6276243;22;20143;-82
2022/02/16 08:30:00;;;;;;;2.10;1.67;;;;;;;;;;6275629;22;20160;-82
2022/02/16 08:32:26;;;;;;;2.63;1.73;;;;;;;;;;6277128;22;20481;-81
2022/02/16 08:34:52;;;;;;;1.47;1.33;;;;;;;;;;6276818;22;20194;-82
2022/02/16 08:37:18;;;;;;;1.40;1.30;;;;;;;;;;6277311;22;20147;-81
2022/02/16 08:39:44;;;;;;;1.70;1.60;;;;;;;;;;6277490;22;20199;-82
2022/02/16 08:42:11;;;;;;;2.27;1.63;;;;;;;;;;6277900;22;20148;-83
2022/02/16 08:44:37;;;;;;;1.83;1.57;;;;;;;;;;6278012;22;20495;-80
2022/02/16 08:47:04;;;;;;;1.93;1.70;;;;;;;;;;6278613;22;20237;-82
2022/02/16 08:49:30;;;;;;;2.80;1.50;;;;;;;;;;6278077;22;20155;-82
2022/02/16 08:51:56;;;;;;;2.63;2.00;;;;;;;;;;6278170;22;20158;-82
2022/02/16 08:54:22;;;;;;;2.60;2.10;;;;;;;;;;6279209;22;20189;-82
2022/02/16 08:56:49;;;;;;;1.40;1.30;;;;;;;;;;6276604;22;20215;-82
2022/02/16 08:59:15;;;;;;;2.13;1.50;;;;;;;;;;6277175;22;20150;-81
2022/02/16 09:01:41;;;;;;;1.73;1.63;;;;;;;;;;6277975;22;20643;-81
2022/02/16 09:04:07;;;;;;;1.43;1.30;;;;;;;;;;6277990;22;20171;-81
2022/02/16 09:06:34;;;;;;;1.47;1.30;;;;;;;;;;6278527;22;20155;-81
2022/02/16 09:09:01;;;;;;;2.30;1.47;;;;;;;;;;6276291;22;20182;-81
2022/02/16 09:11:29;;;;;;;1.33;1.23;;;;;;;;;;6279369;22;20151;-81
2022/02/16 09:13:55;;;;;;;1.20;1.10;;;;;;;;;;6277239;22;20203;-81
2022/02/16 09:16:22;;;;;;;1.30;1.17;;;;;;;;;;6279156;22;20151;-81
2022/02/16 09:18:48;;;;;;;1.57;1.27;;;;;;;;;;6279243;22;20155;-81
2022/02/16 09:21:14;;;;;;;1.30;1.20;;;;;;;;;;6277203;22;20156;-81
2022/02/16 09:23:41;;;;;;;1.40;1.30;;;;;;;;;;6285073;22;20220;-81
2022/02/16 09:26:07;;;;;;;1.43;1.20;;;;;;;;;;6284157;22;20211;-81
2022/02/16 09:28:34;;;;;;;2.20;1.13;;;;;;;;;;6282787;22;20148;-81
2022/02/16 09:31:00;;;;;;;2.07;1.67;;;;;;;;;;6281442;22;20148;-81
2022/02/16 09:33:27;;;;;;;1.63;1.20;;;;;;;;;;6280558;22;20255;-81
2022/02/16 09:35:54;;;;;;;2.50;1.30;;;;;;;;;;6280965;22;20144;-81
2022/02/16 09:38:20;;;;;;;1.40;1.20;;;;;;;;;;6281882;22;20148;-81
2022/02/16 09:40:47;;;;;;;1.80;1.40;;;;;;;;;;6281583;22;20235;-83
2022/02/16 09:43:14;;;;;;;1.60;1.50;;;;;;;;;;6279905;22;20152;-82
2022/02/16 09:45:40;;;;;;;1.60;1.43;;;;;;;;;;6284640;22;20549;-82
2022/02/16 09:48:06;;;;;;;1.63;1.53;;;;;;;;;;6281603;22;20534;-81
2022/02/16 09:50:34;;;;;;;1.30;1.20;;;;;;;;;;6280129;22;20178;-80
2022/02/16 09:53:00;;;;;;;1.67;1.57;;;;;;;;;;6278484;22;20193;-81
2022/02/16 09:55:27;;;;;;;1.47;1.37;;;;;;;;;;6249566;22;20270;-82
2022/02/16 09:57:53;;;;;;;1.30;1.00;;;;;;;;;;6279592;22;20274;-80
2022/02/16 10:00:19;;;;;;;1.73;1.13;;;;;;;;;;6279691;22;20490;-80
2022/02/16 10:02:46;;;;;;;1.97;1.13;;;;;;;;;;6280452;22;20183;-82
2022/02/16 10:05:13;;;;;;;2.27;1.70;;;;;;;;;;6279185;22;20214;-80
2022/02/16 10:07:40;;;;;;;1.33;1.23;;;;;;;;;;6280415;22;20160;-80
2022/02/16 10:10:13;;;;;;;3.20;1.10;;;;;;;;;;6280010;22;20162;-80
2022/02/16 10:12:39;;;;;;;0.93;0.90;;;;;;;;;;6279597;22;20573;-80
2022/02/16 10:15:06;;;;;;;1.00;1.00;;;;;;;;;;6279314;22;20267;-80
2022/02/16 10:17:32;;;;;;;1.13;1.00;;;;;;;;;;6280062;22;20152;-80
2022/02/16 10:20:00;;;;;;;0.90;0.90;;;;;;;;;;6279951;22;20148;-80
2022/02/16 10:22:30;;;;;;;1.10;1.00;;;;;;;;;;6279050;22;20468;-80
2022/02/16 10:25:08;;;;;;;1.37;1.10;;;;;;;;;;6277850;22;20639;-80
2022/02/16 10:27:38;;;;;;;1.27;0.80;;;;;;;;;;6276950;22;20146;-81
2022/02/16 10:30:14;;;;;;;1.00;0.80;;;;;;;;;;6278104;22;20149;-81
2022/02/16 10:32:40;;;;;;;2.67;1.03;;;;;;;;;;6279746;22;20210;-82
2022/02/16 10:35:06;;;;;;;0.80;0.73;;;;;;;;;;6280363;22;20641;-81
2022/02/16 10:37:41;;;;;;;0.70;0.70;;;;;;;;;;6280120;22;20199;-81
2022/02/16 10:40:11;;;;;;;0.80;0.80;;;;;;;;;;6280841;22;20128;-81
2022/02/16 10:42:38;;;;;;;1.40;0.60;;;;;;;;;;6281036;22;20151;-81
2022/02/16 10:45:05;;;;;;;0.93;0.70;;;;;;;;;;6279482;22;20175;-81
2022/02/16 10:47:49;;;;;;;1.00;0.57;;;;;;;;;;6280013;22;20149;-80
2022/02/16 10:50:19;;;;;;;1.30;0.87;;;;;;;;;;6281229;22;20163;-81
2022/02/16 10:52:49;;;;;;;0.77;0.70;;;;;;;;;;6279365;22;20199;-81
2022/02/16 10:55:16;;;;;;;0.60;0.60;;;;;;;;;;6280945;22;20173;-81
2022/02/16 10:57:42;;;;;;;0.93;0.70;;;;;;;;;;6281685;22;20155;-81
2022/02/16 11:00:08;;;;;;;0.73;0.70;;;;;;;;;;6278874;22;20159;-81
2022/02/16 11:02:35;;;;;;;2.40;0.73;;;;;;;;;;6280310;22;20604;-81
2022/02/16 11:05:02;;;;;;;0.77;0.77;;;;;;;;;;6279203;22;20164;-81
2022/02/16 11:07:29;;;;;;;1.13;0.90;;;;;;;;;;6278153;22;20243;-81
2022/02/16 11:10:01;;;;;;;0.80;0.80;;;;;;;;;;6279160;22;20155;-81
2022/02/16 11:12:27;;;;;;;0.60;0.60;;;;;;;;;;6278434;22;20152;-82
2022/02/16 11:14:54;;;;;;;1.77;1.23;;;;;;;;;;6279001;22;20524;-81
2022/02/16 11:17:23;;;;;;;0.60;0.60;;;;;;;;;;6280120;22;20155;-82
2022/02/16 11:20:15;;;;;;;1.03;0.73;;;;;;;;;;6278022;22;20484;-82
2022/02/16 11:23:05;;;;;;;0.80;0.80;;;;;;;;;;6279072;22;20145;-81
2022/02/16 11:25:31;;;;;;;3.10;0.90;;;;;;;;;;6278073;22;20171;-81
2022/02/16 11:28:11;;;;;;;0.87;0.80;;;;;;;;;;6277734;22;20174;-80
2022/02/16 11:30:46;;;;;;;0.80;0.80;;;;;;;;;;6278550;22;20573;-80
2022/02/16 11:33:19;;;;;;;0.70;0.70;;;;;;;;;;6278166;22;20186;-81
2022/02/16 11:35:59;;;;;;;0.63;0.63;;;;;;;;;;6278308;22;20180;-81
2022/02/16 11:38:42;;;;;;;0.73;0.73;;;;;;;;;;6276813;22;20154;-81
2022/02/16 11:41:22;;;;;;;1.20;0.70;;;;;;;;;;6279568;22;20164;-81
2022/02/16 11:43:53;;;;;;;0.90;0.77;;;;;;;;;;6279820;22;20161;-81
2022/02/16 11:46:39;;;;;;;0.97;0.80;;;;;;;;;;6278385;22;20157;-81
2022/02/16 11:49:06;;;;;;;0.60;0.60;;;;;;;;;;6278394;22;20526;-81
2022/02/16 11:51:34;;;;;;;0.70;0.70;;;;;;;;;;6279642;22;20888;-81
2022/02/16 11:54:20;;;;;;;1.67;0.50;;;;;;;;;;6279897;22;20202;-81
2022/02/16 11:56:46;;;;;;;1.10;1.00;;;;;;;;;;6263650;22;20157;-81
2022/02/16 11:59:16;;;;;;;0.70;0.70;;;;;;;;;;6277780;22;20160;-80
2022/02/16 12:02:01;;;;;;;1.40;0.80;;;;;;;;;;6278943;22;20528;-81
2022/02/16 12:04:30;;;;;;;0.73;0.70;;;;;;;;;;6277071;22;20231;-81
2022/02/16 12:07:16;;;;;;;0.60;0.60;;;;;;;;;;6274464;22;20149;-81
2022/02/16 12:09:42;;;;;;;0.87;0.50;;;;;;;;;;6277764;22;20151;-81
2022/02/16 12:12:12;;;;;;;0.83;0.50;;;;;;;;;;6278564;22;20174;-81
2022/02/16 12:14:40;;;;;;;0.70;0.70;;;;;;;;;;6279225;22;20176;-80
2022/02/16 12:17:07;;;;;;;0.53;0.53;;;;;;;;;;6281184;22;20148;-81
2022/02/16 12:19:33;;;;;;;0.60;0.60;;;;;;;;;;6281720;22;20215;-81
2022/02/16 12:22:00;;;;;;;0.80;0.57;;;;;;;;;;6281702;22;20145;-81
2022/02/16 12:24:38;;;;;;;1.10;0.57;;;;;;;;;;6280994;22;20195;-81
2022/02/16 12:27:25;;;;;;;0.40;0.40;;;;;;;;;;6268031;22;20486;-81
2022/02/16 12:30:00;;;;;;;0.50;0.50;;;;;;;;;;6280265;22;20148;-81
2022/02/16 12:32:30;;;;;;;0.63;0.53;;;;;;;;;;6281390;22;20124;-80
2022/02/16 12:35:04;;;;;;;0.50;0.50;;;;;;;;;;6281346;22;20507;-80
2022/02/16 12:37:42;;;;;;;0.50;0.50;;;;;;;;;;6261476;23;20140;-80
2022/02/16 12:40:37;;;;;;;0.60;0.47;;;;;;;;;;6255168;22;20136;-81
2022/02/16 12:43:19;;;;;;;0.30;0.30;;;;;;;;;;6254109;23;20202;-80
2022/02/16 12:45:52;;;;;;;0.60;0.60;;;;;;;;;;6251009;22;20153;-81
2022/02/16 12:48:22;;;;;;;0.30;0.30;;;;;;;;;;6253379;22;20256;-81
2022/02/16 12:50:54;;;;;;;0.30;0.30;;;;;;;;;;6253808;23;20149;-81
2022/02/16 12:54:03;;;;;;;0.50;0.30;;;;;;;;;;6253726;23;20231;-81
2022/02/16 12:56:46;;;;;;;;;;;;;;;;;;;;;
2022/02/16 13:02:47;;;;;;;;;;;;;;;;;;;;;
2022/02/16 13:05:36;;;;;;;0.30;0.30;;;;;;;;;;6250685;23;20255;-81
2022/02/16 13:08:08;;;;;;;0.67;0.50;;;;;;;;;;6208158;22;20228;-81
2022/02/16 13:11:12;;;;;;;0.20;0.20;;;;;;;;;;6251754;23;20169;-81
2022/02/16 13:14:17;;;;;;;0.40;0.30;;;;;;;;;;6251724;22;20200;-81
2022/02/16 13:17:05;;;;;;;1.17;0.50;;;;;;;;;;6249603;23;20665;-81
2022/02/16 13:22:40;;;;;;;0.57;0.40;;;;;;;;;;6251650;23;20136;-81
2022/02/16 13:25:09;;;;;;;0.30;0.30;;;;;;;;;;6250106;23;20196;-81
2022/02/16 13:27:53;;;;;;;1.70;0.40;;;;;;;;;;6249780;23;20149;-81
2022/02/16 13:30:27;;;;;;;1.47;0.40;;;;;;;;;;6249874;22;20250;-81
2022/02/16 13:32:54;;;;;;;0.50;0.50;;;;;;;;;;6251193;23;20238;-81
2022/02/16 13:35:20;;;;;;;0.43;0.43;;;;;;;;;;6265536;22;20199;-81
2022/02/16 13:37:56;;;;;;;1.37;0.50;;;;;;;;;;6285253;22;20179;-79
2022/02/16 13:40:23;;;;;;;0.60;0.50;;;;;;;;;;6281448;22;20232;-79
2022/02/16 13:42:59;;;;;;;0.20;0.20;;;;;;;;;;6278934;22;20619;-79
2022/02/16 13:45:32;;;;;;;1.30;0.67;;;;;;;;;;6279788;22;20176;-81
2022/02/16 13:47:59;;;;;;;1.23;0.60;;;;;;;;;;6279422;22;20160;-81
2022/02/16 13:50:33;;;;;;;1.27;0.40;;;;;;;;;;6278448;22;20204;-81
2022/02/16 13:52:59;;;;;;;0.70;0.50;;;;;;;;;;6278991;22;20159;-82
2022/02/16 13:55:26;;;;;;;0.83;0.40;;;;;;;;;;6279550;22;20224;-81
2022/02/16 13:57:52;;;;;;;0.50;0.50;;;;;;;;;;6278079;22;20493;-81
2022/02/16 14:00:22;;;;;;;0.90;0.60;;;;;;;;;;6279603;22;20141;-82
2022/02/16 14:03:04;;;;;;;0.63;0.60;;;;;;;;;;6279910;22;20449;-81
2022/02/16 14:05:30;;;;;;;0.93;0.80;;;;;;;;;;6276581;22;20641;-81
2022/02/16 14:07:57;;;;;;;3.23;0.93;;;;;;;;;;6279395;22;20204;-80
2022/02/16 14:10:23;;;;;;;3.17;2.00;;;;;;;;;;6279826;22;20473;-79
2022/02/16 14:12:49;;;;;;;1.50;1.10;;;;;;;;;;6279475;22;20532;-81
2022/02/16 14:15:16;;;;;;;1.00;0.80;;;;;;;;;;6279566;22;20157;-82
2022/02/16 14:17:43;;;;;;;1.07;0.60;;;;;;;;;;6280360;22;20518;-81
2022/02/16 14:20:09;;;;;;;1.20;1.10;;;;;;;;;;6279364;22;20148;-81
2022/02/16 14:22:35;;;;;;;2.53;1.30;;;;;;;;;;6277847;22;20156;-82
2022/02/16 14:25:01;;;;;;;2.73;1.60;;;;;;;;;;6273075;22;20175;-79
2022/02/16 14:27:27;;;;;;;0.80;0.60;;;;;;;;;;6278249;22;20205;-80
2022/02/16 14:29:53;;;;;;;0.70;0.70;;;;;;;;;;6277347;22;20156;-82
2022/02/16 14:32:20;;;;;;;0.90;0.60;;;;;;;;;;6278405;22;20145;-81
2022/02/16 14:34:46;;;;;;;0.30;0.30;;;;;;;;;;6277679;22;20190;-80
2022/02/16 14:37:13;;;;;;;0.60;0.50;;;;;;;;;;6279795;22;20189;-81
2022/02/16 14:39:40;;;;;;;0.50;0.50;;;;;;;;;;6279340;22;20196;-81
2022/02/16 14:42:06;;;;;;;1.40;0.67;;;;;;;;;;6278536;22;20155;-79
2022/02/16 14:44:32;;;;;;;1.07;0.50;;;;;;;;;;6279691;22;20167;-80
2022/02/16 14:46:59;;;;;;;0.70;0.50;;;;;;;;;;6279467;22;20148;-81
2022/02/16 14:49:27;;;;;;;0.60;0.53;;;;;;;;;;6279541;22;20518;-81
2022/02/16 14:51:54;;;;;;;0.50;0.40;;;;;;;;;;6277746;22;20191;-81